sensor_id;sensor_type;location;lat;lon;timestamp;P1;durP1;ratioP1;P2;durP2;ratioP2
7965;SDS011;4028;43.272;26.932;2022-10-16T00:00:32;14.30;;;12.90;;
7965;SDS011;4028;43.272;26.932;2022-10-16T00:02:59;15.37;;;12.43;;
7965;SDS011;4028;43.272;26.932;2022-10-16T00:05:24;14.20;;;12.70;;
7965;SDS011;4028;43.272;26.932;2022-10-16T00:07:50;14.13;;;12.20;;
7965;SDS011;4028;43.272;26.932;2022-10-16T00:10:15;14.67;;;12.67;;
7965;SDS011;4028;43.272;26.932;2022-10-16T00:12:41;13.27;;;11.97;;
7965;SDS011;4028;43.272;26.932;2022-10-16T00:15:07;14.17;;;12.63;;
7965;SDS011;4028;43.272;26.932;2022-10-16T00:17:32;18.13;;;11.70;;
7965;SDS011;4028;43.272;26.932;2022-10-16T00:19:58;14.47;;;12.97;;
7965;SDS011;4028;43.272;26.932;2022-10-16T00:22:23;13.53;;;12.10;;
7965;SDS011;4028;43.272;26.932;2022-10-16T00:24:49;15.33;;;12.43;;
7965;SDS011;4028;43.272;26.932;2022-10-16T00:27:15;17.80;;;13.67;;
7965;SDS011;4028;43.272;26.932;2022-10-16T00:29:41;14.80;;;13.30;;
7965;SDS011;4028;43.272;26.932;2022-10-16T00:32:06;17.07;;;12.20;;
7965;SDS011;4028;43.272;26.932;2022-10-16T00:34:32;14.47;;;12.03;;
7965;SDS011;4028;43.272;26.932;2022-10-16T00:36:57;13.43;;;11.97;;
7965;SDS011;4028;43.272;26.932;2022-10-16T00:39:23;16.97;;;12.10;;
7965;SDS011;4028;43.272;26.932;2022-10-16T00:41:49;13.43;;;12.07;;
7965;SDS011;4028;43.272;26.932;2022-10-16T00:47:30;14.03;;;10.33;;
7965;SDS011;4028;43.272;26.932;2022-10-16T00:50:04;12.47;;;11.17;;
7965;SDS011;4028;43.272;26.932;2022-10-16T00:52:34;12.77;;;10.57;;
7965;SDS011;4028;43.272;26.932;2022-10-16T00:55:01;14.20;;;10.97;;
7965;SDS011;4028;43.272;26.932;2022-10-16T00:57:29;11.33;;;10.20;;
7965;SDS011;4028;43.272;26.932;2022-10-16T00:59:55;11.10;;;9.93;;
7965;SDS011;4028;43.272;26.932;2022-10-16T01:02:22;12.27;;;10.83;;
7965;SDS011;4028;43.272;26.932;2022-10-16T01:04:48;13.23;;;11.10;;
7965;SDS011;4028;43.272;26.932;2022-10-16T01:07:20;12.23;;;10.97;;
7965;SDS011;4028;43.272;26.932;2022-10-16T01:10:17;11.87;;;10.40;;
7965;SDS011;4028;43.272;26.932;2022-10-16T01:18:39;11.40;;;9.73;;
7965;SDS011;4028;43.272;26.932;2022-10-16T01:21:15;12.60;;;10.90;;
7965;SDS011;4028;43.272;26.932;2022-10-16T01:26:46;11.43;;;9.67;;
7965;SDS011;4028;43.272;26.932;2022-10-16T01:29:30;10.37;;;9.23;;
7965;SDS011;4028;43.272;26.932;2022-10-16T01:32:02;11.47;;;9.63;;
7965;SDS011;4028;43.272;26.932;2022-10-16T01:34:35;11.77;;;9.43;;
7965;SDS011;4028;43.272;26.932;2022-10-16T01:37:12;9.77;;;8.77;;
7965;SDS011;4028;43.272;26.932;2022-10-16T01:39:41;11.30;;;9.60;;
7965;SDS011;4028;43.272;26.932;2022-10-16T01:42:21;11.47;;;9.50;;
7965;SDS011;4028;43.272;26.932;2022-10-16T01:44:49;10.17;;;9.17;;
7965;SDS011;4028;43.272;26.932;2022-10-16T01:47:17;12.27;;;9.20;;
7965;SDS011;4028;43.272;26.932;2022-10-16T01:49:47;10.47;;;9.10;;
7965;SDS011;4028;43.272;26.932;2022-10-16T01:52:16;12.27;;;9.10;;
7965;SDS011;4028;43.272;26.932;2022-10-16T01:54:46;11.17;;;9.40;;
7965;SDS011;4028;43.272;26.932;2022-10-16T01:57:14;12.90;;;9.43;;
7965;SDS011;4028;43.272;26.932;2022-10-16T01:59:45;14.17;;;9.30;;
7965;SDS011;4028;43.272;26.932;2022-10-16T02:02:13;11.67;;;9.83;;
7965;SDS011;4028;43.272;26.932;2022-10-16T02:04:46;12.20;;;10.67;;
7965;SDS011;4028;43.272;26.932;2022-10-16T02:07:15;11.67;;;10.13;;
7965;SDS011;4028;43.272;26.932;2022-10-16T02:09:41;10.87;;;9.43;;
7965;SDS011;4028;43.272;26.932;2022-10-16T02:12:09;10.93;;;9.80;;
7965;SDS011;4028;43.272;26.932;2022-10-16T02:14:44;11.00;;;9.73;;
7965;SDS011;4028;43.272;26.932;2022-10-16T02:17:13;12.33;;;10.07;;
7965;SDS011;4028;43.272;26.932;2022-10-16T02:19:42;11.83;;;10.57;;
7965;SDS011;4028;43.272;26.932;2022-10-16T02:22:09;11.80;;;10.57;;
7965;SDS011;4028;43.272;26.932;2022-10-16T02:24:46;12.03;;;10.73;;
7965;SDS011;4028;43.272;26.932;2022-10-16T02:27:23;14.30;;;10.87;;
7965;SDS011;4028;43.272;26.932;2022-10-16T02:29:53;12.00;;;10.90;;
7965;SDS011;4028;43.272;26.932;2022-10-16T02:32:27;12.57;;;11.27;;
7965;SDS011;4028;43.272;26.932;2022-10-16T02:34:56;12.10;;;10.80;;
7965;SDS011;4028;43.272;26.932;2022-10-16T02:37:23;12.27;;;11.00;;
7965;SDS011;4028;43.272;26.932;2022-10-16T02:39:50;13.03;;;11.73;;
7965;SDS011;4028;43.272;26.932;2022-10-16T02:42:17;12.67;;;11.00;;
7965;SDS011;4028;43.272;26.932;2022-10-16T02:44:43;12.70;;;11.50;;
7965;SDS011;4028;43.272;26.932;2022-10-16T02:47:09;13.40;;;10.87;;
7965;SDS011;4028;43.272;26.932;2022-10-16T02:49:34;13.47;;;10.80;;
7965;SDS011;4028;43.272;26.932;2022-10-16T02:52:00;12.07;;;11.00;;
7965;SDS011;4028;43.272;26.932;2022-10-16T02:54:25;11.67;;;10.47;;
7965;SDS011;4028;43.272;26.932;2022-10-16T02:56:51;11.50;;;10.40;;
7965;SDS011;4028;43.272;26.932;2022-10-16T02:59:17;12.60;;;11.30;;
7965;SDS011;4028;43.272;26.932;2022-10-16T03:01:42;12.33;;;11.13;;
7965;SDS011;4028;43.272;26.932;2022-10-16T03:04:07;13.23;;;10.80;;
7965;SDS011;4028;43.272;26.932;2022-10-16T03:06:34;12.30;;;11.10;;
7965;SDS011;4028;43.272;26.932;2022-10-16T03:08:59;13.13;;;11.83;;
7965;SDS011;4028;43.272;26.932;2022-10-16T03:11:25;12.37;;;11.13;;
7965;SDS011;4028;43.272;26.932;2022-10-16T03:13:51;12.47;;;11.13;;
7965;SDS011;4028;43.272;26.932;2022-10-16T03:16:16;13.33;;;12.03;;
7965;SDS011;4028;43.272;26.932;2022-10-16T03:18:42;13.10;;;11.70;;
7965;SDS011;4028;43.272;26.932;2022-10-16T03:21:07;15.30;;;12.90;;
7965;SDS011;4028;43.272;26.932;2022-10-16T03:23:33;14.03;;;12.53;;
7965;SDS011;4028;43.272;26.932;2022-10-16T03:25:58;13.77;;;12.37;;
7965;SDS011;4028;43.272;26.932;2022-10-16T03:28:24;16.13;;;13.17;;
7965;SDS011;4028;43.272;26.932;2022-10-16T03:30:49;14.17;;;12.73;;
7965;SDS011;4028;43.272;26.932;2022-10-16T03:33:15;14.50;;;13.07;;
7965;SDS011;4028;43.272;26.932;2022-10-16T03:35:40;13.53;;;12.27;;
7965;SDS011;4028;43.272;26.932;2022-10-16T03:38:06;14.33;;;13.00;;
7965;SDS011;4028;43.272;26.932;2022-10-16T03:40:31;13.83;;;12.40;;
7965;SDS011;4028;43.272;26.932;2022-10-16T03:42:57;14.37;;;12.87;;
7965;SDS011;4028;43.272;26.932;2022-10-16T03:45:23;14.60;;;12.77;;
7965;SDS011;4028;43.272;26.932;2022-10-16T03:47:49;14.70;;;13.17;;
7965;SDS011;4028;43.272;26.932;2022-10-16T03:50:15;14.20;;;12.77;;
7965;SDS011;4028;43.272;26.932;2022-10-16T03:52:40;13.90;;;12.60;;
7965;SDS011;4028;43.272;26.932;2022-10-16T03:55:06;16.83;;;13.17;;
7965;SDS011;4028;43.272;26.932;2022-10-16T03:57:32;15.40;;;12.67;;
7965;SDS011;4028;43.272;26.932;2022-10-16T03:59:58;19.10;;;13.13;;
7965;SDS011;4028;43.272;26.932;2022-10-16T04:02:23;13.27;;;12.07;;
7965;SDS011;4028;43.272;26.932;2022-10-16T04:04:49;14.37;;;12.97;;
7965;SDS011;4028;43.272;26.932;2022-10-16T04:07:14;14.07;;;12.67;;
7965;SDS011;4028;43.272;26.932;2022-10-16T04:09:40;13.03;;;11.77;;
7965;SDS011;4028;43.272;26.932;2022-10-16T04:12:05;15.13;;;13.00;;
7965;SDS011;4028;43.272;26.932;2022-10-16T04:14:31;13.77;;;11.83;;
7965;SDS011;4028;43.272;26.932;2022-10-16T04:16:56;15.53;;;12.47;;
7965;SDS011;4028;43.272;26.932;2022-10-16T04:19:22;13.20;;;11.90;;
7965;SDS011;4028;43.272;26.932;2022-10-16T04:21:47;13.90;;;12.37;;
7965;SDS011;4028;43.272;26.932;2022-10-16T04:24:12;13.23;;;11.93;;
7965;SDS011;4028;43.272;26.932;2022-10-16T04:26:38;15.53;;;11.97;;
7965;SDS011;4028;43.272;26.932;2022-10-16T04:29:03;12.23;;;10.97;;
7965;SDS011;4028;43.272;26.932;2022-10-16T04:31:29;12.33;;;11.13;;
7965;SDS011;4028;43.272;26.932;2022-10-16T04:33:55;13.93;;;11.30;;
7965;SDS011;4028;43.272;26.932;2022-10-16T04:36:20;13.20;;;11.80;;
7965;SDS011;4028;43.272;26.932;2022-10-16T04:38:46;12.77;;;11.57;;
7965;SDS011;4028;43.272;26.932;2022-10-16T04:41:11;13.43;;;11.63;;
7965;SDS011;4028;43.272;26.932;2022-10-16T04:43:37;13.57;;;11.30;;
7965;SDS011;4028;43.272;26.932;2022-10-16T04:46:02;13.57;;;12.27;;
7965;SDS011;4028;43.272;26.932;2022-10-16T04:48:29;14.37;;;12.87;;
7965;SDS011;4028;43.272;26.932;2022-10-16T04:50:55;15.23;;;13.30;;
7965;SDS011;4028;43.272;26.932;2022-10-16T04:53:21;14.57;;;12.30;;
7965;SDS011;4028;43.272;26.932;2022-10-16T04:55:46;15.57;;;12.70;;
7965;SDS011;4028;43.272;26.932;2022-10-16T04:58:12;17.10;;;12.67;;
7965;SDS011;4028;43.272;26.932;2022-10-16T05:00:37;18.53;;;13.53;;
7965;SDS011;4028;43.272;26.932;2022-10-16T05:03:03;18.67;;;13.13;;
7965;SDS011;4028;43.272;26.932;2022-10-16T05:05:32;16.40;;;13.73;;
7965;SDS011;4028;43.272;26.932;2022-10-16T05:07:58;15.87;;;14.17;;
7965;SDS011;4028;43.272;26.932;2022-10-16T05:10:23;17.70;;;14.73;;
7965;SDS011;4028;43.272;26.932;2022-10-16T05:12:49;17.70;;;13.80;;
7965;SDS011;4028;43.272;26.932;2022-10-16T05:15:16;17.43;;;13.83;;
7965;SDS011;4028;43.272;26.932;2022-10-16T05:17:41;18.17;;;13.57;;
7965;SDS011;4028;43.272;26.932;2022-10-16T05:20:07;20.13;;;14.80;;
7965;SDS011;4028;43.272;26.932;2022-10-16T05:22:33;18.07;;;13.80;;
7965;SDS011;4028;43.272;26.932;2022-10-16T05:24:58;19.83;;;14.70;;
7965;SDS011;4028;43.272;26.932;2022-10-16T05:27:24;16.40;;;13.60;;
7965;SDS011;4028;43.272;26.932;2022-10-16T05:29:49;21.10;;;13.83;;
7965;SDS011;4028;43.272;26.932;2022-10-16T05:32:15;22.10;;;14.33;;
7965;SDS011;4028;43.272;26.932;2022-10-16T05:34:41;16.53;;;13.53;;
7965;SDS011;4028;43.272;26.932;2022-10-16T05:37:07;22.97;;;14.87;;
7965;SDS011;4028;43.272;26.932;2022-10-16T05:39:33;16.80;;;13.93;;
7965;SDS011;4028;43.272;26.932;2022-10-16T05:41:58;18.13;;;14.63;;
7965;SDS011;4028;43.272;26.932;2022-10-16T05:44:24;18.93;;;14.17;;
7965;SDS011;4028;43.272;26.932;2022-10-16T05:46:50;19.43;;;14.73;;
7965;SDS011;4028;43.272;26.932;2022-10-16T05:49:15;16.17;;;14.00;;
7965;SDS011;4028;43.272;26.932;2022-10-16T05:51:41;18.47;;;14.00;;
7965;SDS011;4028;43.272;26.932;2022-10-16T05:54:07;18.37;;;14.17;;
7965;SDS011;4028;43.272;26.932;2022-10-16T05:56:32;17.50;;;14.23;;
7965;SDS011;4028;43.272;26.932;2022-10-16T05:58:58;15.83;;;13.50;;
7965;SDS011;4028;43.272;26.932;2022-10-16T06:01:23;14.43;;;12.93;;
7965;SDS011;4028;43.272;26.932;2022-10-16T06:03:50;14.53;;;13.03;;
7965;SDS011;4028;43.272;26.932;2022-10-16T06:06:17;14.67;;;13.27;;
7965;SDS011;4028;43.272;26.932;2022-10-16T06:08:45;15.07;;;13.60;;
7965;SDS011;4028;43.272;26.932;2022-10-16T06:11:13;13.90;;;12.53;;
7965;SDS011;4028;43.272;26.932;2022-10-16T06:13:44;14.23;;;12.67;;
7965;SDS011;4028;43.272;26.932;2022-10-16T06:16:11;14.00;;;11.70;;
7965;SDS011;4028;43.272;26.932;2022-10-16T06:18:37;14.43;;;11.50;;
7965;SDS011;4028;43.272;26.932;2022-10-16T06:21:10;11.93;;;10.47;;
7965;SDS011;4028;43.272;26.932;2022-10-16T06:23:42;13.67;;;8.83;;
7965;SDS011;4028;43.272;26.932;2022-10-16T06:26:09;9.23;;;7.50;;
7965;SDS011;4028;43.272;26.932;2022-10-16T06:28:37;8.20;;;7.03;;
7965;SDS011;4028;43.272;26.932;2022-10-16T06:31:03;7.33;;;5.93;;
7965;SDS011;4028;43.272;26.932;2022-10-16T06:33:30;7.60;;;5.77;;
7965;SDS011;4028;43.272;26.932;2022-10-16T06:36:02;7.87;;;5.60;;
7965;SDS011;4028;43.272;26.932;2022-10-16T06:38:30;9.00;;;5.90;;
7965;SDS011;4028;43.272;26.932;2022-10-16T06:40:56;5.60;;;5.10;;
7965;SDS011;4028;43.272;26.932;2022-10-16T06:43:22;5.63;;;5.13;;
7965;SDS011;4028;43.272;26.932;2022-10-16T06:45:56;5.87;;;4.97;;
7965;SDS011;4028;43.272;26.932;2022-10-16T06:48:23;8.33;;;5.37;;
7965;SDS011;4028;43.272;26.932;2022-10-16T06:50:59;6.95;;;5.28;;
7965;SDS011;4028;43.272;26.932;2022-10-16T06:53:28;8.35;;;5.40;;
7965;SDS011;4028;43.272;26.932;2022-10-16T06:55:56;6.10;;;5.13;;
7965;SDS011;4028;43.272;26.932;2022-10-16T06:58:22;7.75;;;5.47;;
7965;SDS011;4028;43.272;26.932;2022-10-16T07:00:48;6.18;;;5.30;;
7965;SDS011;4028;43.272;26.932;2022-10-16T07:03:14;7.35;;;5.47;;
7965;SDS011;4028;43.272;26.932;2022-10-16T07:05:40;5.50;;;4.60;;
7965;SDS011;4028;43.272;26.932;2022-10-16T07:08:07;6.80;;;5.10;;
7965;SDS011;4028;43.272;26.932;2022-10-16T07:10:33;8.30;;;6.50;;
7965;SDS011;4028;43.272;26.932;2022-10-16T07:12:59;7.68;;;6.97;;
7965;SDS011;4028;43.272;26.932;2022-10-16T07:15:25;8.73;;;7.30;;
7965;SDS011;4028;43.272;26.932;2022-10-16T07:17:51;8.45;;;6.70;;
7965;SDS011;4028;43.272;26.932;2022-10-16T07:20:17;7.40;;;6.53;;
7965;SDS011;4028;43.272;26.932;2022-10-16T07:22:43;10.25;;;6.65;;
7965;SDS011;4028;43.272;26.932;2022-10-16T07:25:08;7.10;;;4.88;;
7965;SDS011;4028;43.272;26.932;2022-10-16T07:27:34;5.80;;;4.95;;
7965;SDS011;4028;43.272;26.932;2022-10-16T07:30:00;6.95;;;5.40;;
7965;SDS011;4028;43.272;26.932;2022-10-16T07:32:26;5.05;;;3.80;;
7965;SDS011;4028;43.272;26.932;2022-10-16T07:34:52;4.22;;;3.47;;
7965;SDS011;4028;43.272;26.932;2022-10-16T07:37:18;3.92;;;3.53;;
7965;SDS011;4028;43.272;26.932;2022-10-16T07:39:43;5.38;;;3.33;;
7965;SDS011;4028;43.272;26.932;2022-10-16T07:42:09;6.47;;;3.30;;
7965;SDS011;4028;43.272;26.932;2022-10-16T07:44:34;4.10;;;3.38;;
7965;SDS011;4028;43.272;26.932;2022-10-16T07:47:00;4.95;;;3.15;;
7965;SDS011;4028;43.272;26.932;2022-10-16T07:49:25;3.97;;;3.25;;
7965;SDS011;4028;43.272;26.932;2022-10-16T07:51:51;6.57;;;3.10;;
7965;SDS011;4028;43.272;26.932;2022-10-16T07:54:16;4.22;;;3.20;;
7965;SDS011;4028;43.272;26.932;2022-10-16T07:56:42;6.47;;;3.45;;
7965;SDS011;4028;43.272;26.932;2022-10-16T07:59:08;6.43;;;3.92;;
7965;SDS011;4028;43.272;26.932;2022-10-16T08:01:33;6.10;;;4.45;;
7965;SDS011;4028;43.272;26.932;2022-10-16T08:03:59;6.35;;;5.07;;
7965;SDS011;4028;43.272;26.932;2022-10-16T08:06:24;8.70;;;5.15;;
7965;SDS011;4028;43.272;26.932;2022-10-16T08:08:50;7.40;;;5.18;;
7965;SDS011;4028;43.272;26.932;2022-10-16T08:11:15;6.88;;;5.15;;
7965;SDS011;4028;43.272;26.932;2022-10-16T08:13:41;7.68;;;4.80;;
7965;SDS011;4028;43.272;26.932;2022-10-16T08:16:07;7.43;;;5.40;;
7965;SDS011;4028;43.272;26.932;2022-10-16T08:18:34;8.02;;;5.43;;
7965;SDS011;4028;43.272;26.932;2022-10-16T08:21:00;5.03;;;3.90;;
7965;SDS011;4028;43.272;26.932;2022-10-16T08:23:27;5.53;;;3.72;;
7965;SDS011;4028;43.272;26.932;2022-10-16T08:25:53;5.93;;;3.30;;
7965;SDS011;4028;43.272;26.932;2022-10-16T08:28:19;3.95;;;3.30;;
7965;SDS011;4028;43.272;26.932;2022-10-16T08:30:44;3.55;;;2.92;;
7965;SDS011;4028;43.272;26.932;2022-10-16T08:33:10;10.38;;;8.90;;
7965;SDS011;4028;43.272;26.932;2022-10-16T08:35:36;25.25;;;12.32;;
7965;SDS011;4028;43.272;26.932;2022-10-16T08:38:04;8.27;;;5.22;;
7965;SDS011;4028;43.272;26.932;2022-10-16T08:40:31;15.50;;;7.13;;
7965;SDS011;4028;43.272;26.932;2022-10-16T08:45:51;25.45;;;14.52;;
7965;SDS011;4028;43.272;26.932;2022-10-16T08:51:02;22.90;;;11.60;;
7965;SDS011;4028;43.272;26.932;2022-10-16T08:54:03;8.20;;;5.03;;
7965;SDS011;4028;43.272;26.932;2022-10-16T08:56:23;14.05;;;7.60;;
7965;SDS011;4028;43.272;26.932;2022-10-16T08:58:50;9.02;;;6.47;;
7965;SDS011;4028;43.272;26.932;2022-10-16T09:01:17;9.88;;;6.30;;
7965;SDS011;4028;43.272;26.932;2022-10-16T09:11:53;6.03;;;3.70;;
7965;SDS011;4028;43.272;26.932;2022-10-16T09:19:46;6.38;;;3.35;;
7965;SDS011;4028;43.272;26.932;2022-10-16T09:22:18;7.47;;;3.50;;
7965;SDS011;4028;43.272;26.932;2022-10-16T09:24:51;4.63;;;3.20;;
7965;SDS011;4028;43.272;26.932;2022-10-16T09:27:16;8.18;;;3.28;;
7965;SDS011;4028;43.272;26.932;2022-10-16T09:29:42;4.70;;;2.97;;
7965;SDS011;4028;43.272;26.932;2022-10-16T09:32:14;5.90;;;3.65;;
7965;SDS011;4028;43.272;26.932;2022-10-16T09:34:45;6.50;;;3.13;;
7965;SDS011;4028;43.272;26.932;2022-10-16T09:37:17;4.07;;;2.97;;
7965;SDS011;4028;43.272;26.932;2022-10-16T09:39:51;3.88;;;3.47;;
7965;SDS011;4028;43.272;26.932;2022-10-16T09:42:36;4.43;;;3.28;;
7965;SDS011;4028;43.272;26.932;2022-10-16T09:45:02;6.60;;;3.38;;
7965;SDS011;4028;43.272;26.932;2022-10-16T09:47:29;4.82;;;3.40;;
7965;SDS011;4028;43.272;26.932;2022-10-16T09:49:57;3.30;;;2.97;;
7965;SDS011;4028;43.272;26.932;2022-10-16T09:52:27;2.80;;;2.50;;
7965;SDS011;4028;43.272;26.932;2022-10-16T09:57:24;4.13;;;3.05;;
7965;SDS011;4028;43.272;26.932;2022-10-16T09:59:54;6.40;;;3.22;;
7965;SDS011;4028;43.272;26.932;2022-10-16T10:02:34;3.40;;;3.10;;
7965;SDS011;4028;43.272;26.932;2022-10-16T10:05:04;4.00;;;3.50;;
7965;SDS011;4028;43.272;26.932;2022-10-16T10:07:31;5.93;;;3.40;;
7965;SDS011;4028;43.272;26.932;2022-10-16T10:10:02;4.70;;;2.88;;
7965;SDS011;4028;43.272;26.932;2022-10-16T10:12:30;5.88;;;3.80;;
7965;SDS011;4028;43.272;26.932;2022-10-16T10:15:07;4.07;;;3.70;;
7965;SDS011;4028;43.272;26.932;2022-10-16T10:18:37;5.03;;;3.53;;
7965;SDS011;4028;43.272;26.932;2022-10-16T10:20:46;5.43;;;3.00;;
7965;SDS011;4028;43.272;26.932;2022-10-16T10:23:23;3.38;;;3.08;;
7965;SDS011;4028;43.272;26.932;2022-10-16T10:26:00;7.35;;;3.58;;
7965;SDS011;4028;43.272;26.932;2022-10-16T10:28:35;6.60;;;3.92;;
7965;SDS011;4028;43.272;26.932;2022-10-16T10:36:41;4.60;;;3.22;;
7965;SDS011;4028;43.272;26.932;2022-10-16T10:44:30;4.75;;;2.90;;
7965;SDS011;4028;43.272;26.932;2022-10-16T10:47:40;3.72;;;2.67;;
7965;SDS011;4028;43.272;26.932;2022-10-16T10:50:49;4.80;;;3.08;;
7965;SDS011;4028;43.272;26.932;2022-10-16T10:56:56;6.57;;;2.95;;
7965;SDS011;4028;43.272;26.932;2022-10-16T11:01:50;3.75;;;2.88;;
7965;SDS011;4028;43.272;26.932;2022-10-16T11:07:00;4.88;;;2.83;;
7965;SDS011;4028;43.272;26.932;2022-10-16T11:09:33;7.65;;;3.22;;
7965;SDS011;4028;43.272;26.932;2022-10-16T11:12:20;4.57;;;2.80;;
7965;SDS011;4028;43.272;26.932;2022-10-16T11:17:39;6.30;;;2.60;;
7965;SDS011;4028;43.272;26.932;2022-10-16T11:22:41;4.75;;;2.95;;
7965;SDS011;4028;43.272;26.932;2022-10-16T11:25:19;3.30;;;2.47;;
7965;SDS011;4028;43.272;26.932;2022-10-16T11:28:00;4.40;;;2.70;;
7965;SDS011;4028;43.272;26.932;2022-10-16T11:30:38;5.13;;;2.67;;
7965;SDS011;4028;43.272;26.932;2022-10-16T11:36:12;3.72;;;2.60;;
7965;SDS011;4028;43.272;26.932;2022-10-16T11:41:12;8.50;;;3.22;;
7965;SDS011;4028;43.272;26.932;2022-10-16T11:43:46;3.75;;;2.50;;
7965;SDS011;4028;43.272;26.932;2022-10-16T11:46:19;4.07;;;2.60;;
7965;SDS011;4028;43.272;26.932;2022-10-16T11:51:23;5.30;;;2.33;;
7965;SDS011;4028;43.272;26.932;2022-10-16T11:54:02;3.55;;;2.50;;
7965;SDS011;4028;43.272;26.932;2022-10-16T11:56:41;4.20;;;2.90;;
7965;SDS011;4028;43.272;26.932;2022-10-16T11:59:52;3.30;;;2.67;;
7965;SDS011;4028;43.272;26.932;2022-10-16T12:04:51;4.10;;;2.80;;
7965;SDS011;4028;43.272;26.932;2022-10-16T12:07:45;4.45;;;2.67;;
7965;SDS011;4028;43.272;26.932;2022-10-16T12:10:34;2.65;;;2.40;;
7965;SDS011;4028;43.272;26.932;2022-10-16T12:13:26;3.78;;;2.85;;
7965;SDS011;4028;43.272;26.932;2022-10-16T12:16:03;4.20;;;2.53;;
7965;SDS011;4028;43.272;26.932;2022-10-16T12:18:44;3.22;;;2.90;;
7965;SDS011;4028;43.272;26.932;2022-10-16T12:21:14;2.72;;;2.50;;
7965;SDS011;4028;43.272;26.932;2022-10-16T12:23:48;4.15;;;2.30;;
7965;SDS011;4028;43.272;26.932;2022-10-16T12:26:23;5.07;;;2.60;;
7965;SDS011;4028;43.272;26.932;2022-10-16T12:29:09;4.07;;;2.30;;
7965;SDS011;4028;43.272;26.932;2022-10-16T12:31:44;4.85;;;2.80;;
7965;SDS011;4028;43.272;26.932;2022-10-16T12:34:23;3.83;;;2.30;;
7965;SDS011;4028;43.272;26.932;2022-10-16T12:37:31;6.07;;;2.35;;
7965;SDS011;4028;43.272;26.932;2022-10-16T12:40:13;2.78;;;2.50;;
7965;SDS011;4028;43.272;26.932;2022-10-16T12:42:41;6.75;;;2.97;;
7965;SDS011;4028;43.272;26.932;2022-10-16T12:47:56;3.95;;;2.20;;
7965;SDS011;4028;43.272;26.932;2022-10-16T12:50:24;3.30;;;2.45;;
7965;SDS011;4028;43.272;26.932;2022-10-16T12:52:52;5.18;;;2.38;;
7965;SDS011;4028;43.272;26.932;2022-10-16T12:55:18;5.07;;;2.25;;
7965;SDS011;4028;43.272;26.932;2022-10-16T13:00:29;3.08;;;2.45;;
7965;SDS011;4028;43.272;26.932;2022-10-16T13:14:33;4.78;;;2.45;;
7965;SDS011;4028;43.272;26.932;2022-10-16T13:17:22;4.68;;;3.30;;
7965;SDS011;4028;43.272;26.932;2022-10-16T13:19:59;4.53;;;3.20;;
7965;SDS011;4028;43.272;26.932;2022-10-16T13:28:08;4.32;;;2.55;;
7965;SDS011;4028;43.272;26.932;2022-10-16T13:33:52;3.15;;;2.20;;
7965;SDS011;4028;43.272;26.932;2022-10-16T13:35:57;2.85;;;2.33;;
7965;SDS011;4028;43.272;26.932;2022-10-16T13:38:24;4.75;;;2.20;;
7965;SDS011;4028;43.272;26.932;2022-10-16T13:41:05;3.20;;;2.25;;
7965;SDS011;4028;43.272;26.932;2022-10-16T13:43:41;2.75;;;2.33;;
7965;SDS011;4028;43.272;26.932;2022-10-16T13:48:55;3.40;;;2.17;;
7965;SDS011;4028;43.272;26.932;2022-10-16T13:51:30;5.38;;;2.40;;
7965;SDS011;4028;43.272;26.932;2022-10-16T13:53:56;3.80;;;2.63;;
7965;SDS011;4028;43.272;26.932;2022-10-16T13:56:25;3.75;;;2.40;;
7965;SDS011;4028;43.272;26.932;2022-10-16T13:59:03;2.40;;;2.20;;
7965;SDS011;4028;43.272;26.932;2022-10-16T14:01:31;4.37;;;2.43;;
7965;SDS011;4028;43.272;26.932;2022-10-16T14:04:04;2.87;;;2.10;;
7965;SDS011;4028;43.272;26.932;2022-10-16T14:06:33;4.10;;;2.90;;
7965;SDS011;4028;43.272;26.932;2022-10-16T14:09:22;3.70;;;3.23;;
7965;SDS011;4028;43.272;26.932;2022-10-16T14:11:50;5.27;;;3.50;;
7965;SDS011;4028;43.272;26.932;2022-10-16T14:14:18;4.63;;;3.07;;
7965;SDS011;4028;43.272;26.932;2022-10-16T14:16:44;4.57;;;3.40;;
7965;SDS011;4028;43.272;26.932;2022-10-16T14:19:21;5.50;;;3.47;;
7965;SDS011;4028;43.272;26.932;2022-10-16T14:21:50;9.50;;;3.00;;
7965;SDS011;4028;43.272;26.932;2022-10-16T14:24:26;6.93;;;3.57;;
7965;SDS011;4028;43.272;26.932;2022-10-16T14:26:57;4.43;;;3.20;;
7965;SDS011;4028;43.272;26.932;2022-10-16T14:29:24;3.07;;;2.77;;
7965;SDS011;4028;43.272;26.932;2022-10-16T14:34:52;3.77;;;2.70;;
7965;SDS011;4028;43.272;26.932;2022-10-16T14:37:22;3.53;;;2.70;;
7965;SDS011;4028;43.272;26.932;2022-10-16T14:39:50;6.37;;;2.83;;
7965;SDS011;4028;43.272;26.932;2022-10-16T14:42:16;3.13;;;2.60;;
7965;SDS011;4028;43.272;26.932;2022-10-16T14:44:44;3.77;;;3.00;;
7965;SDS011;4028;43.272;26.932;2022-10-16T14:47:14;7.23;;;3.07;;
7965;SDS011;4028;43.272;26.932;2022-10-16T14:49:47;6.73;;;2.93;;
7965;SDS011;4028;43.272;26.932;2022-10-16T14:52:12;6.57;;;3.93;;
7965;SDS011;4028;43.272;26.932;2022-10-16T14:54:39;3.67;;;2.90;;
7965;SDS011;4028;43.272;26.932;2022-10-16T14:57:05;4.63;;;2.80;;
7965;SDS011;4028;43.272;26.932;2022-10-16T14:59:42;5.17;;;2.93;;
7965;SDS011;4028;43.272;26.932;2022-10-16T15:04:46;6.40;;;3.50;;
7965;SDS011;4028;43.272;26.932;2022-10-16T15:07:12;4.57;;;3.70;;
7965;SDS011;4028;43.272;26.932;2022-10-16T15:09:37;5.73;;;4.63;;
7965;SDS011;4028;43.272;26.932;2022-10-16T15:12:03;5.63;;;4.00;;
7965;SDS011;4028;43.272;26.932;2022-10-16T15:14:30;5.90;;;4.43;;
7965;SDS011;4028;43.272;26.932;2022-10-16T15:16:55;8.70;;;4.50;;
7965;SDS011;4028;43.272;26.932;2022-10-16T15:19:21;8.90;;;5.10;;
7965;SDS011;4028;43.272;26.932;2022-10-16T15:21:46;8.60;;;4.30;;
7965;SDS011;4028;43.272;26.932;2022-10-16T15:24:13;7.10;;;4.20;;
7965;SDS011;4028;43.272;26.932;2022-10-16T15:26:38;8.87;;;4.13;;
7965;SDS011;4028;43.272;26.932;2022-10-16T15:29:04;8.73;;;3.80;;
7965;SDS011;4028;43.272;26.932;2022-10-16T15:31:30;7.73;;;4.10;;
7965;SDS011;4028;43.272;26.932;2022-10-16T15:33:56;4.60;;;2.93;;
7965;SDS011;4028;43.272;26.932;2022-10-16T15:36:30;7.80;;;3.70;;
7965;SDS011;4028;43.272;26.932;2022-10-16T15:38:59;8.73;;;3.77;;
7965;SDS011;4028;43.272;26.932;2022-10-16T15:41:25;5.90;;;3.30;;
7965;SDS011;4028;43.272;26.932;2022-10-16T15:43:51;12.40;;;3.97;;
7965;SDS011;4028;43.272;26.932;2022-10-16T15:46:20;13.50;;;5.73;;
7965;SDS011;4028;43.272;26.932;2022-10-16T15:48:48;10.97;;;7.27;;
7965;SDS011;4028;43.272;26.932;2022-10-16T15:51:15;10.00;;;7.70;;
7965;SDS011;4028;43.272;26.932;2022-10-16T15:53:41;10.03;;;7.57;;
7965;SDS011;4028;43.272;26.932;2022-10-16T15:56:08;11.40;;;8.00;;
7965;SDS011;4028;43.272;26.932;2022-10-16T15:58:35;13.23;;;8.23;;
7965;SDS011;4028;43.272;26.932;2022-10-16T16:01:01;10.47;;;7.93;;
7965;SDS011;4028;43.272;26.932;2022-10-16T16:03:31;10.30;;;7.43;;
7965;SDS011;4028;43.272;26.932;2022-10-16T16:05:57;13.07;;;8.07;;
7965;SDS011;4028;43.272;26.932;2022-10-16T16:08:23;10.90;;;7.30;;
7965;SDS011;4028;43.272;26.932;2022-10-16T16:11:08;14.37;;;8.33;;
7965;SDS011;4028;43.272;26.932;2022-10-16T16:13:35;9.77;;;8.03;;
7965;SDS011;4028;43.272;26.932;2022-10-16T16:16:21;13.07;;;8.60;;
7965;SDS011;4028;43.272;26.932;2022-10-16T16:18:47;12.10;;;7.83;;
7965;SDS011;4028;43.272;26.932;2022-10-16T16:21:14;14.73;;;8.43;;
7965;SDS011;4028;43.272;26.932;2022-10-16T16:23:39;11.63;;;7.47;;
7965;SDS011;4028;43.272;26.932;2022-10-16T16:28:48;12.10;;;8.83;;
7965;SDS011;4028;43.272;26.932;2022-10-16T16:31:14;13.13;;;9.03;;
7965;SDS011;4028;43.272;26.932;2022-10-16T16:33:39;10.83;;;8.70;;
7965;SDS011;4028;43.272;26.932;2022-10-16T16:36:05;12.77;;;8.67;;
7965;SDS011;4028;43.272;26.932;2022-10-16T16:38:31;10.93;;;8.87;;
7965;SDS011;4028;43.272;26.932;2022-10-16T16:40:57;10.57;;;8.77;;
7965;SDS011;4028;43.272;26.932;2022-10-16T16:43:26;10.27;;;7.93;;
7965;SDS011;4028;43.272;26.932;2022-10-16T16:45:52;11.53;;;8.43;;
7965;SDS011;4028;43.272;26.932;2022-10-16T16:48:19;10.03;;;7.20;;